Time;durP1;ratioP1;P1;durP2;ratioP2;P2;SDS_P1;SDS_P2;PMS_P1;PMS_P2;Temp;Humidity;BMP_temperature;BMP_pressure;BME280_temperature;BME280_humidity;BME280_pressure;Samples;Min_cycle;Max_cycle;Signal;HPM_P1;HPM_P2
2022/10/24 00:02:05;;;;;;;1.83;0.77;;;15.00;99.90;;;;;;4961681;28;20051;-64
2022/10/24 00:04:34;;;;;;;1.55;0.60;;;15.00;99.90;;;;;;4961326;28;20475;-64
2022/10/24 00:07:00;;;;;;;3.25;0.80;;;15.00;99.90;;;;;;4961332;28;20047;-65
2022/10/24 00:09:26;;;;;;;1.73;0.68;;;14.90;99.90;;;;;;4944164;29;20050;-65
2022/10/24 00:11:52;;;;;;;1.88;0.60;;;14.90;99.90;;;;;;4961633;29;20066;-65
2022/10/24 00:14:17;;;;;;;1.42;0.77;;;14.90;99.90;;;;;;4928168;29;20126;-64
2022/10/24 00:16:43;;;;;;;1.77;0.70;;;14.80;99.90;;;;;;4961255;29;20069;-65
2022/10/24 00:19:09;;;;;;;1.90;0.88;;;14.80;99.90;;;;;;4961539;29;20174;-65
2022/10/24 00:21:34;;;;;;;3.22;0.63;;;14.80;99.90;;;;;;4961530;29;20060;-65
2022/10/24 00:24:00;;;;;;;1.88;0.80;;;14.80;99.90;;;;;;4943903;29;20498;-65
2022/10/24 00:26:26;;;;;;;0.65;0.57;;;14.80;99.90;;;;;;4961040;28;20051;-64
2022/10/24 00:28:51;;;;;;;3.08;0.88;;;14.70;99.90;;;;;;4961359;29;20410;-64
2022/10/24 00:31:18;;;;;;;0.98;0.50;;;14.80;99.90;;;;;;4943865;29;20054;-64
2022/10/24 00:33:44;;;;;;;3.50;0.90;;;14.70;99.90;;;;;;4961429;28;20070;-65
2022/10/24 00:36:12;;;;;;;0.95;0.60;;;14.70;99.90;;;;;;4961159;28;20043;-64
2022/10/24 00:38:38;;;;;;;5.32;0.60;;;14.70;99.90;;;;;;4960967;29;20047;-64
2022/10/24 00:41:04;;;;;;;1.52;0.70;;;14.70;99.90;;;;;;4961028;29;20051;-64
2022/10/24 00:43:30;;;;;;;0.95;0.43;;;14.70;99.90;;;;;;4961082;28;20117;-64
2022/10/24 00:45:58;;;;;;;3.45;0.73;;;14.80;99.90;;;;;;4961253;28;20086;-64
2022/10/24 00:48:27;;;;;;;1.80;0.73;;;14.80;99.90;;;;;;4960997;28;20046;-64
2022/10/24 00:51:12;;;;;;;1.55;0.75;;;14.70;99.90;;;;;;4961262;29;20431;-64
2022/10/24 00:53:43;;;;;;;1.02;0.50;;;14.70;99.90;;;;;;4961202;29;20045;-64
2022/10/24 00:56:11;;;;;;;1.42;0.50;;;14.80;99.90;;;;;;4961004;28;20043;-65
2022/10/24 00:58:38;;;;;;;1.17;0.50;;;14.70;99.90;;;;;;4961286;28;20557;-65
2022/10/24 01:01:04;;;;;;;4.80;0.47;;;14.70;99.90;;;;;;4944028;29;20876;-65
2022/10/24 01:03:31;;;;;;;1.20;0.75;;;14.70;99.90;;;;;;4943505;29;20047;-65
2022/10/24 01:06:06;;;;;;;1.85;0.60;;;14.70;99.90;;;;;;4960818;29;20126;-65
2022/10/24 01:09:02;;;;;;;1.45;0.47;;;14.80;99.90;;;;;;4960015;28;20039;-65
2022/10/24 01:11:46;;;;;;;1.00;0.70;;;14.70;99.90;;;;;;4940649;29;20050;-65
2022/10/24 01:14:34;;;;;;;5.82;0.68;;;14.70;99.90;;;;;;4940912;29;20053;-65
2022/10/24 01:17:12;;;;;;;2.38;0.93;;;14.80;99.90;;;;;;4958009;29;20063;-65
2022/10/24 01:20:06;;;;;;;0.55;0.50;;;14.80;99.90;;;;;;4957956;29;20487;-65
2022/10/24 01:22:41;;;;;;;1.00;0.52;;;14.80;99.90;;;;;;4940462;29;20047;-65
2022/10/24 01:25:48;;;;;;;1.65;0.70;;;14.80;99.90;;;;;;4957582;29;20098;-65
2022/10/24 01:28:39;;;;;;;0.80;0.47;;;14.90;99.90;;;;;;4957885;29;20380;-65
2022/10/24 01:31:12;;;;;;;0.50;0.45;;;14.90;99.90;;;;;;4940373;29;20065;-65
2022/10/24 01:33:44;;;;;;;1.65;0.82;;;14.90;99.90;;;;;;4940173;29;20057;-65
2022/10/24 01:36:20;;;;;;;0.90;0.50;;;14.90;99.90;;;;;;4957684;29;20047;-65
2022/10/24 01:38:56;;;;;;;2.15;0.82;;;14.90;99.90;;;;;;4957306;29;20035;-65
2022/10/24 01:41:26;;;;;;;0.55;0.38;;;14.80;99.90;;;;;;4957578;29;20098;-65
2022/10/24 01:44:03;;;;;;;1.83;0.75;;;14.90;99.90;;;;;;4957142;29;20047;-65
2022/10/24 01:46:38;;;;;;;2.50;1.00;;;14.90;99.90;;;;;;4957173;29;20051;-65
2022/10/24 01:49:16;;;;;;;1.02;0.60;;;14.90;99.90;;;;;;4924149;29;20047;-65
2022/10/24 01:51:44;;;;;;;5.38;0.68;;;14.90;99.90;;;;;;4924111;29;20051;-65
2022/10/24 01:54:11;;;;;;;1.20;0.65;;;14.90;99.90;;;;;;4957369;29;20051;-65
2022/10/24 01:56:38;;;;;;;3.75;0.90;;;14.90;99.90;;;;;;4957250;29;20049;-65
2022/10/24 01:59:28;;;;;;;2.05;0.90;;;14.90;99.90;;;;;;4957282;29;20040;-65
2022/10/24 02:02:29;;;;;;;3.38;0.93;;;14.90;99.90;;;;;;4957187;29;20114;-65
2022/10/24 02:05:17;;;;;;;1.13;0.63;;;14.80;99.90;;;;;;4923243;29;20055;-65
2022/10/24 02:07:46;;;;;;;1.55;0.70;;;14.80;99.90;;;;;;4955992;29;20073;-64
2022/10/24 02:10:21;;;;;;;2.83;0.90;;;14.80;99.90;;;;;;4956747;29;20142;-65
2022/10/24 02:12:52;;;;;;;1.58;0.90;;;14.80;99.90;;;;;;4939511;29;20067;-65
2022/10/24 02:15:27;;;;;;;1.95;0.85;;;14.80;99.90;;;;;;4939403;29;20039;-64
2022/10/24 02:17:55;;;;;;;2.10;1.02;;;14.80;99.90;;;;;;4956697;29;20043;-65
2022/10/24 02:20:28;;;;;;;1.23;0.73;;;14.80;99.90;;;;;;4956726;28;20049;-65
2022/10/24 02:23:04;;;;;;;1.52;1.10;;;14.80;99.90;;;;;;4939280;29;20070;-65
2022/10/24 02:25:33;;;;;;;0.75;0.63;;;14.90;99.90;;;;;;4939286;29;20412;-65
2022/10/24 02:28:09;;;;;;;3.30;1.05;;;14.80;99.90;;;;;;4939352;29;20050;-65
2022/10/24 02:30:43;;;;;;;7.65;1.10;;;14.90;99.90;;;;;;4956297;29;20134;-65
2022/10/24 02:33:10;;;;;;;5.70;1.33;;;14.80;99.90;;;;;;4939199;29;20050;-65
2022/10/24 02:35:38;;;;;;;3.28;0.70;;;14.80;99.90;;;;;;4939450;29;20138;-64
2022/10/24 02:38:19;;;;;;;4.00;0.90;;;14.90;99.90;;;;;;4956530;29;20047;-65
2022/10/24 02:40:47;;;;;;;;;;;14.90;99.90;;;;;;4956647;29;20395;-65
2022/10/24 02:43:13;;;;;;;3.42;0.90;;;14.90;99.90;;;;;;4956163;29;19949;-64
2022/10/24 02:45:39;;;;;;;3.20;1.38;;;14.90;99.90;;;;;;4956429;29;20043;-65
2022/10/24 02:48:10;;;;;;;1.80;0.80;;;14.90;99.90;;;;;;4956093;29;20117;-64
2022/10/24 02:50:38;;;;;;;;;;;14.90;99.90;;;;;;4956697;29;20134;-65
2022/10/24 02:53:04;;;;;;;3.08;0.80;;;14.90;99.90;;;;;;4956023;29;19919;-65
2022/10/24 02:55:30;;;;;;;2.10;0.80;;;14.90;99.90;;;;;;4955842;29;20046;-65
2022/10/24 02:57:55;;;;;;;1.23;0.88;;;14.90;99.90;;;;;;4956231;29;20414;-65
2022/10/24 03:00:21;;;;;;;1.13;0.80;;;14.80;99.90;;;;;;4938743;29;20043;-65
2022/10/24 03:02:47;;;;;;;2.10;1.05;;;14.90;99.90;;;;;;4955834;29;20463;-64
2022/10/24 03:05:13;;;;;;;2.45;1.10;;;14.90;99.90;;;;;;4956138;29;20094;-65
2022/10/24 03:07:39;;;;;;;2.05;1.10;;;14.90;99.90;;;;;;4955761;29;20043;-64
2022/10/24 03:10:05;;;;;;;1.58;1.00;;;15.00;99.90;;;;;;4938752;29;20047;-65
2022/10/24 03:12:30;;;;;;;1.88;1.05;;;15.00;99.90;;;;;;4955918;29;20093;-65
2022/10/24 03:14:56;;;;;;;3.40;0.90;;;15.00;99.90;;;;;;4955626;29;20117;-65
2022/10/24 03:17:22;;;;;;;2.72;1.13;;;15.00;99.90;;;;;;4938417;29;20051;-65
2022/10/24 03:19:48;;;;;;;1.52;0.60;;;15.00;99.90;;;;;;4955821;29;20049;-65
2022/10/24 03:22:14;;;;;;;1.23;0.70;;;14.90;99.90;;;;;;4955831;29;20047;-66
2022/10/24 03:24:39;;;;;;;3.15;0.82;;;14.90;99.90;;;;;;4938085;29;20051;-65
2022/10/24 03:27:05;;;;;;;1.35;0.85;;;14.90;99.90;;;;;;4938661;29;20435;-65
2022/10/24 03:29:31;;;;;;;2.70;0.85;;;14.80;99.90;;;;;;4955440;29;20098;-65
2022/10/24 03:31:56;;;;;;;3.13;0.82;;;14.80;99.90;;;;;;4938058;29;20035;-65
2022/10/24 03:34:22;;;;;;;2.55;0.70;;;14.80;99.90;;;;;;4955711;29;20043;-65
2022/10/24 03:36:48;;;;;;;2.22;0.90;;;14.80;99.90;;;;;;4955257;29;20046;-65
2022/10/24 03:39:14;;;;;;;2.03;0.80;;;14.80;99.90;;;;;;4938148;29;20046;-65
2022/10/24 03:41:39;;;;;;;1.23;0.60;;;14.80;99.90;;;;;;4922247;29;20065;-65
2022/10/24 03:44:05;;;;;;;1.13;0.73;;;15.10;99.90;;;;;;4955482;29;20451;-65
2022/10/24 03:46:31;;;;;;;4.47;1.00;;;14.80;99.90;;;;;;4955466;29;20035;-65
2022/10/24 03:48:56;;;;;;;2.03;0.95;;;14.90;99.90;;;;;;4955200;29;20407;-64
2022/10/24 03:51:22;;;;;;;4.20;0.90;;;14.80;99.90;;;;;;4937992;29;20380;-65
2022/10/24 03:53:48;;;;;;;1.27;0.90;;;14.90;99.90;;;;;;4955060;29;20410;-65
2022/10/24 03:56:13;;;;;;;2.50;1.35;;;14.90;99.90;;;;;;4955329;29;20046;-65
2022/10/24 03:58:39;;;;;;;2.63;1.00;;;14.90;99.90;;;;;;4938199;29;20094;-65
2022/10/24 04:01:05;;;;;;;1.50;0.70;;;14.90;99.90;;;;;;4955206;29;20395;-65
2022/10/24 04:03:30;;;;;;;3.42;0.80;;;14.90;99.90;;;;;;4955268;29;20554;-65
2022/10/24 04:05:56;;;;;;;2.63;1.20;;;14.90;99.90;;;;;;4955316;29;20110;-65
2022/10/24 04:08:22;;;;;;;1.83;0.90;;;14.90;99.90;;;;;;4937795;29;20106;-65
2022/10/24 04:10:48;;;;;;;2.15;0.98;;;14.90;99.90;;;;;;4937854;29;20517;-65
2022/10/24 04:13:14;;;;;;;3.10;1.00;;;14.90;99.90;;;;;;4955158;29;20106;-65
2022/10/24 04:15:40;;;;;;;3.40;1.05;;;14.90;99.90;;;;;;4921923;29;20494;-65
2022/10/24 04:18:07;;;;;;;3.97;1.25;;;15.00;99.90;;;;;;4954859;29;20047;-65
2022/10/24 04:20:33;;;;;;;2.15;0.80;;;14.90;99.90;;;;;;4937884;29;20062;-65
2022/10/24 04:22:59;;;;;;;2.05;1.00;;;14.90;99.90;;;;;;4954773;29;20098;-65
2022/10/24 04:25:24;;;;;;;3.42;0.93;;;14.90;99.90;;;;;;4954770;28;20055;-65
2022/10/24 04:27:50;;;;;;;1.23;0.75;;;14.80;99.90;;;;;;4954775;29;20046;-65
2022/10/24 04:30:16;;;;;;;2.53;0.75;;;14.90;99.90;;;;;;4938017;29;20047;-65
2022/10/24 04:32:41;;;;;;;2.28;0.77;;;14.80;99.90;;;;;;4954744;29;20066;-65
2022/10/24 04:35:07;;;;;;;4.20;1.23;;;14.80;99.90;;;;;;4955019;29;20170;-65
2022/10/24 04:37:33;;;;;;;0.90;0.68;;;14.80;99.90;;;;;;4954991;29;20039;-65
2022/10/24 04:39:59;;;;;;;4.97;1.17;;;14.80;99.90;;;;;;4955038;29;20395;-65
2022/10/24 04:42:25;;;;;;;3.58;1.10;;;14.80;99.90;;;;;;4955034;29;20406;-65
2022/10/24 04:44:51;;;;;;;4.32;0.82;;;14.80;99.90;;;;;;4956454;28;20127;-64
2022/10/24 04:47:17;;;;;;;5.40;1.15;;;14.70;99.90;;;;;;4941060;29;20623;-65
2022/10/24 04:49:42;;;;;;;2.42;0.80;;;14.70;99.90;;;;;;4958531;29;20039;-65
2022/10/24 04:52:08;;;;;;;4.05;0.95;;;14.70;99.90;;;;;;4958508;29;20395;-65
2022/10/24 04:54:34;;;;;;;4.63;1.05;;;14.70;99.90;;;;;;4958489;29;20518;-65
2022/10/24 04:56:59;;;;;;;3.72;0.93;;;14.70;99.90;;;;;;4925390;29;20047;-65
2022/10/24 04:59:25;;;;;;;2.78;0.93;;;14.70;99.90;;;;;;4958292;29;20126;-65
2022/10/24 05:01:53;;;;;;;2.55;0.95;;;14.60;99.90;;;;;;4957956;29;20035;-65
2022/10/24 05:04:18;;;;;;;4.78;1.10;;;14.60;99.90;;;;;;4958203;29;20122;-65
2022/10/24 05:06:45;;;;;;;3.00;0.82;;;14.70;99.90;;;;;;4958202;29;20114;-65
2022/10/24 05:09:11;;;;;;;1.92;0.80;;;14.60;99.90;;;;;;4957958;29;20122;-65
2022/10/24 05:11:36;;;;;;;2.45;0.75;;;14.60;99.90;;;;;;4940645;29;20079;-65
2022/10/24 05:14:02;;;;;;;5.60;1.13;;;14.60;99.90;;;;;;4940993;29;20081;-65
2022/10/24 05:16:28;;;;;;;0.52;0.45;;;14.60;99.90;;;;;;4958022;29;20121;-66
2022/10/24 05:18:53;;;;;;;2.78;0.80;;;14.60;99.90;;;;;;4958051;29;20054;-65
2022/10/24 05:21:19;;;;;;;4.10;0.90;;;14.60;99.90;;;;;;4940521;29;20043;-64
2022/10/24 05:23:45;;;;;;;2.15;0.88;;;14.50;99.90;;;;;;4940408;29;20094;-65
2022/10/24 05:26:10;;;;;;;3.28;0.90;;;14.40;99.90;;;;;;4940291;29;20102;-65
2022/10/24 05:28:36;;;;;;;0.47;0.43;;;14.60;99.90;;;;;;4957865;29;20040;-65
2022/10/24 05:31:02;;;;;;;5.95;0.90;;;14.60;99.90;;;;;;4957845;29;20043;-63
2022/10/24 05:33:28;;;;;;;1.08;0.70;;;14.50;99.90;;;;;;4957470;29;20070;-63
2022/10/24 05:35:53;;;;;;;1.92;0.73;;;14.50;99.90;;;;;;4940511;29;20047;-64
2022/10/24 05:38:19;;;;;;;2.70;0.98;;;14.50;99.90;;;;;;4957707;29;20121;-64
2022/10/24 05:40:50;;;;;;;1.85;0.60;;;14.50;99.90;;;;;;4957391;29;20390;-64
2022/10/24 05:43:16;;;;;;;0.77;0.47;;;14.50;99.90;;;;;;4957219;29;20051;-64
2022/10/24 05:45:41;;;;;;;2.78;0.63;;;14.50;99.90;;;;;;4940077;29;20044;-64
2022/10/24 05:48:07;;;;;;;1.00;0.60;;;14.40;99.90;;;;;;4957174;29;20031;-63
2022/10/24 05:50:33;;;;;;;0.73;0.63;;;14.40;99.90;;;;;;4940255;29;20047;-65
2022/10/24 05:53:00;;;;;;;2.13;0.47;;;14.40;99.90;;;;;;4939908;29;20070;-65
2022/10/24 05:55:25;;;;;;;4.95;0.90;;;14.30;99.90;;;;;;4923588;29;20051;-65
2022/10/24 05:57:51;;;;;;;0.90;0.63;;;14.30;99.90;;;;;;4957077;29;20150;-64
2022/10/24 06:00:17;;;;;;;1.00;0.60;;;14.30;99.90;;;;;;4939899;29;20140;-64
2022/10/24 06:02:44;;;;;;;2.20;1.10;;;14.30;99.90;;;;;;4957250;29;20042;-65
2022/10/24 06:05:11;;;;;;;1.90;0.60;;;14.30;99.90;;;;;;4957081;29;20478;-65
2022/10/24 06:07:37;;;;;;;1.17;0.68;;;14.30;99.90;;;;;;4956801;29;20054;-66
2022/10/24 06:10:05;;;;;;;1.25;0.63;;;14.40;99.90;;;;;;4957063;29;20043;-65
2022/10/24 06:12:31;;;;;;;2.03;0.75;;;14.40;99.90;;;;;;4939713;29;20054;-65
2022/10/24 06:14:58;;;;;;;2.15;0.60;;;14.50;99.90;;;;;;4939645;29;20098;-65
2022/10/24 06:17:24;;;;;;;2.08;0.50;;;14.60;99.90;;;;;;4956971;29;20039;-66
2022/10/24 06:19:50;;;;;;;0.55;0.50;;;14.60;99.90;;;;;;4956912;29;20039;-66
2022/10/24 06:22:17;;;;;;;2.05;0.60;;;14.70;99.90;;;;;;4956839;29;20129;-66
2022/10/24 06:24:43;;;;;;;1.83;0.52;;;14.70;99.90;;;;;;4956513;29;20043;-66
2022/10/24 06:27:09;;;;;;;2.67;0.63;;;14.70;99.90;;;;;;4956760;29;20043;-66
2022/10/24 06:29:35;;;;;;;1.52;0.50;;;14.70;99.90;;;;;;4956331;29;20042;-66
2022/10/24 06:32:00;;;;;;;4.13;0.50;;;14.70;99.90;;;;;;4956740;29;20561;-66
2022/10/24 06:34:26;;;;;;;0.47;0.35;;;14.80;99.90;;;;;;4956594;29;20079;-65
2022/10/24 06:36:52;;;;;;;0.68;0.32;;;14.80;99.90;;;;;;4956578;29;20518;-65
2022/10/24 06:39:18;;;;;;;1.23;0.60;;;14.70;99.90;;;;;;4956485;29;20050;-66
2022/10/24 06:41:45;;;;;;;1.42;0.50;;;14.70;99.90;;;;;;4956473;29;20070;-65
2022/10/24 06:44:10;;;;;;;0.40;0.40;;;14.80;99.90;;;;;;4956453;29;20044;-66
2022/10/24 06:46:36;;;;;;;4.32;1.23;;;14.70;99.90;;;;;;4956453;29;20043;-66
2022/10/24 06:49:02;;;;;;;0.38;0.38;;;14.70;99.90;;;;;;4956119;29;20050;-66
2022/10/24 06:51:28;;;;;;;3.05;0.80;;;14.70;99.90;;;;;;4956039;29;20042;-66
2022/10/24 06:53:54;;;;;;;1.02;0.75;;;14.70;99.90;;;;;;4956316;29;20051;-66
2022/10/24 06:56:19;;;;;;;1.70;0.40;;;14.80;99.90;;;;;;4956233;29;20054;-67
2022/10/24 06:58:45;;;;;;;0.55;0.38;;;14.70;99.90;;;;;;4955838;29;20050;-66
2022/10/24 07:01:14;;;;;;;1.70;1.05;;;14.70;99.90;;;;;;4956234;29;20039;-66
2022/10/24 07:03:40;;;;;;;2.83;0.82;;;14.70;99.90;;;;;;4955981;29;20044;-66
2022/10/24 07:06:14;;;;;;;0.75;0.60;;;14.70;99.90;;;;;;4955948;28;20121;-66
2022/10/24 07:08:40;;;;;;;1.48;0.68;;;14.80;99.90;;;;;;4955462;29;20137;-66
2022/10/24 07:11:06;;;;;;;1.13;0.63;;;14.80;99.90;;;;;;4956002;29;20042;-66
2022/10/24 07:13:31;;;;;;;2.25;0.63;;;14.80;99.90;;;;;;4955911;29;20066;-66
2022/10/24 07:15:57;;;;;;;2.03;0.85;;;14.80;99.90;;;;;;4955855;29;20054;-66
2022/10/24 07:18:23;;;;;;;1.30;0.47;;;14.80;99.90;;;;;;4922916;29;20046;-66
2022/10/24 07:20:49;;;;;;;2.60;0.80;;;15.00;99.90;;;;;;4955889;29;20035;-66
2022/10/24 07:23:15;;;;;;;1.25;0.80;;;15.00;99.90;;;;;;4938213;29;20051;-66
2022/10/24 07:25:41;;;;;;;0.30;0.30;;;15.00;99.90;;;;;;4955282;29;20051;-67
2022/10/24 07:28:09;;;;;;;3.03;0.70;;;15.10;99.90;;;;;;4955362;29;20122;-66
2022/10/24 07:30:36;;;;;;;2.17;0.43;;;15.10;99.90;;;;;;4955657;29;20061;-66
2022/10/24 07:33:02;;;;;;;1.60;0.60;;;15.20;99.90;;;;;;4955561;29;20039;-66
2022/10/24 07:35:28;;;;;;;2.78;0.63;;;15.20;99.90;;;;;;4938058;29;20106;-66
2022/10/24 07:37:54;;;;;;;4.13;1.35;;;15.20;99.90;;;;;;4955581;29;20043;-67
2022/10/24 07:40:19;;;;;;;4.15;0.63;;;15.20;99.90;;;;;;4922238;29;20042;-66
2022/10/24 07:42:45;;;;;;;2.15;1.10;;;15.30;99.90;;;;;;4955375;29;20090;-66
2022/10/24 07:45:11;;;;;;;0.85;0.57;;;15.30;99.90;;;;;;4955513;29;20396;-66
2022/10/24 07:47:37;;;;;;;0.90;0.40;;;15.40;99.90;;;;;;4922235;29;20151;-66
2022/10/24 07:50:04;;;;;;;2.65;0.70;;;15.40;99.90;;;;;;4938153;29;20077;-67
2022/10/24 07:52:30;;;;;;;2.63;0.73;;;15.30;99.90;;;;;;4955225;29;20427;-66
2022/10/24 07:54:56;;;;;;;1.95;0.65;;;15.30;99.90;;;;;;4938189;29;20043;-66
2022/10/24 07:57:23;;;;;;;1.15;0.40;;;15.30;99.90;;;;;;4955427;29;20106;-66
2022/10/24 07:59:49;;;;;;;2.67;0.80;;;15.30;99.90;;;;;;4955117;29;20050;-66
2022/10/24 08:02:16;;;;;;;1.08;0.60;;;15.30;99.90;;;;;;4955011;29;20120;-66
2022/10/24 08:04:42;;;;;;;5.80;0.77;;;15.40;99.90;;;;;;4955284;29;20070;-65
2022/10/24 08:07:12;;;;;;;1.35;0.50;;;15.50;99.90;;;;;;4955305;29;20062;-65
2022/10/24 08:09:46;;;;;;;1.02;0.50;;;15.50;99.90;;;;;;4955304;29;20047;-65
2022/10/24 08:12:12;;;;;;;2.03;0.50;;;15.50;99.90;;;;;;4955254;29;20039;-66
2022/10/24 08:14:39;;;;;;;3.40;0.70;;;15.60;99.90;;;;;;4955254;29;20051;-66
2022/10/24 08:17:05;;;;;;;0.63;0.50;;;15.60;99.90;;;;;;4954908;29;20039;-66
2022/10/24 08:19:31;;;;;;;1.35;0.60;;;15.60;99.90;;;;;;4940772;29;20050;-66
2022/10/24 08:21:57;;;;;;;2.47;0.55;;;15.60;99.90;;;;;;4959158;29;20471;-65
2022/10/24 08:24:23;;;;;;;1.23;0.50;;;15.70;99.90;;;;;;4958549;29;20055;-66
2022/10/24 08:26:49;;;;;;;2.40;0.60;;;15.70;99.90;;;;;;4925666;29;20047;-66
2022/10/24 08:29:21;;;;;;;1.40;0.65;;;15.80;99.90;;;;;;4925953;29;20043;-66
2022/10/24 08:31:50;;;;;;;2.78;0.73;;;15.90;99.90;;;;;;4958930;29;20046;-66
2022/10/24 08:34:17;;;;;;;0.93;0.60;;;15.90;99.90;;;;;;4958593;29;20051;-66
2022/10/24 08:36:43;;;;;;;0.40;0.40;;;16.00;99.90;;;;;;4958627;29;20043;-66
2022/10/24 08:39:08;;;;;;;1.33;0.40;;;16.00;99.90;;;;;;4941645;29;20047;-66
2022/10/24 08:41:42;;;;;;;1.08;0.45;;;16.00;99.90;;;;;;4958707;29;20078;-66
2022/10/24 08:44:34;;;;;;;2.28;1.00;;;16.10;99.90;;;;;;4941154;29;20051;-66
2022/10/24 08:47:08;;;;;;;3.33;0.70;;;16.20;99.00;;;;;;4958635;29;20488;-66
2022/10/24 08:49:48;;;;;;;1.38;0.43;;;16.20;97.60;;;;;;4958583;29;20043;-66
2022/10/24 08:52:29;;;;;;;3.20;0.40;;;16.20;99.30;;;;;;4958576;29;20039;-66
2022/10/24 08:54:59;;;;;;;1.10;0.35;;;16.30;99.40;;;;;;4958290;29;20043;-66
2022/10/24 08:57:28;;;;;;;5.45;0.63;;;16.30;99.70;;;;;;4958467;29;20043;-66
2022/10/24 09:00:01;;;;;;;4.15;0.47;;;16.40;99.50;;;;;;4940966;29;20059;-66
2022/10/24 09:02:32;;;;;;;1.83;0.70;;;16.50;97.80;;;;;;4958350;29;20102;-65
2022/10/24 09:05:03;;;;;;;1.67;0.50;;;16.60;96.60;;;;;;4958290;29;20040;-66
2022/10/24 09:07:29;;;;;;;1.38;0.52;;;16.60;96.30;;;;;;4941037;29;20043;-66
2022/10/24 09:10:19;;;;;;;0.80;0.40;;;16.60;96.60;;;;;;4958228;29;20114;-66
2022/10/24 09:12:44;;;;;;;1.73;0.60;;;16.70;97.30;;;;;;4957861;29;20039;-66
2022/10/24 09:15:27;;;;;;;3.58;0.93;;;16.80;97.30;;;;;;4925068;29;20039;-66
2022/10/24 09:17:54;;;;;;;0.88;0.50;;;16.90;96.30;;;;;;4958139;29;20486;-66
2022/10/24 09:20:27;;;;;;;1.50;0.65;;;16.90;95.60;;;;;;4957766;29;20051;-66
2022/10/24 09:22:56;;;;;;;1.95;0.50;;;17.00;97.60;;;;;;4957977;29;20043;-66
2022/10/24 09:25:30;;;;;;;4.25;0.85;;;17.00;96.20;;;;;;4957624;28;20106;-66
2022/10/24 09:27:57;;;;;;;5.28;0.95;;;16.90;96.60;;;;;;4957963;29;20043;-66
2022/10/24 09:30:26;;;;;;;0.70;0.50;;;16.90;95.10;;;;;;4939881;29;20067;-67
2022/10/24 09:32:54;;;;;;;1.52;0.38;;;16.90;96.50;;;;;;4957116;29;20047;-67
2022/10/24 09:35:23;;;;;;;2.22;0.70;;;16.90;97.90;;;;;;4957787;29;20071;-66
2022/10/24 09:37:50;;;;;;;2.55;0.60;;;16.90;94.30;;;;;;4957778;29;20071;-66
2022/10/24 09:40:16;;;;;;;1.10;0.60;;;16.80;95.90;;;;;;4940305;29;20069;-66
2022/10/24 09:43:19;;;;;;;3.53;0.60;;;16.80;96.80;;;;;;4957677;29;20039;-66
2022/10/24 09:45:49;;;;;;;0.65;0.32;;;16.80;97.80;;;;;;4957057;29;20066;-66
2022/10/24 09:48:25;;;;;;;3.80;0.68;;;16.80;97.70;;;;;;4957284;29;20059;-66
2022/10/24 09:50:52;;;;;;;1.73;0.65;;;16.90;96.70;;;;;;4940069;29;20047;-66
2022/10/24 09:53:24;;;;;;;3.10;0.63;;;17.00;97.10;;;;;;4940003;29;20066;-66
2022/10/24 09:55:57;;;;;;;1.27;0.40;;;16.90;97.30;;;;;;4924048;29;20051;-66
2022/10/24 09:58:32;;;;;;;6.18;0.63;;;16.90;96.90;;;;;;4957280;29;20035;-66
2022/10/24 10:01:17;;;;;;;2.20;0.60;;;16.90;97.70;;;;;;4957303;29;20488;-66
2022/10/24 10:04:00;;;;;;;2.03;0.43;;;17.10;95.80;;;;;;4940088;29;20047;-66
2022/10/24 10:06:26;;;;;;;2.03;0.50;;;17.10;95.50;;;;;;4923862;29;20043;-66
2022/10/24 10:08:56;;;;;;;1.85;0.80;;;17.10;93.50;;;;;;4956886;29;20403;-66
2022/10/24 10:11:30;;;;;;;2.33;0.50;;;17.20;95.80;;;;;;4939663;29;20043;-66
2022/10/24 10:13:59;;;;;;;1.13;0.55;;;17.20;96.30;;;;;;4957131;29;20278;-66
2022/10/24 10:16:37;;;;;;;1.55;0.40;;;17.30;92.80;;;;;;4939569;29;20118;-66
2022/10/24 10:19:15;;;;;;;0.28;0.13;;;17.40;93.50;;;;;;4956720;29;20043;-66
2022/10/24 10:21:54;;;;;;;0.82;0.60;;;17.40;90.40;;;;;;4939553;29;20047;-66
2022/10/24 10:24:38;;;;;;;1.00;0.22;;;17.40;91.30;;;;;;4957090;28;20047;-67
2022/10/24 10:27:36;;;;;;;2.90;0.75;;;17.50;91.30;;;;;;4956855;29;20055;-67
2022/10/24 10:30:18;;;;;;;4.53;0.60;;;17.50;92.30;;;;;;4939734;29;20043;-67
2022/10/24 10:32:55;;;;;;;1.67;0.32;;;17.50;91.50;;;;;;4956475;29;20039;-67
2022/10/24 10:35:39;;;;;;;1.10;0.47;;;17.50;91.40;;;;;;4956715;29;20041;-67
2022/10/24 10:38:29;;;;;;;1.25;0.50;;;17.50;88.40;;;;;;4956338;29;20126;-67
2022/10/24 10:41:01;;;;;;;0.60;0.30;;;17.50;91.20;;;;;;4956318;28;20054;-68
2022/10/24 10:43:45;;;;;;;1.10;0.40;;;17.50;91.70;;;;;;4956086;29;20301;-67
2022/10/24 10:46:49;;;;;;;2.50;0.70;;;17.40;89.10;;;;;;4956220;29;20039;-67
2022/10/24 10:49:26;;;;;;;5.07;0.50;;;17.40;83.30;;;;;;4956439;29;20129;-67
2022/10/24 10:52:01;;;;;;;2.67;0.47;;;17.40;90.20;;;;;;4939214;29;20457;-67
2022/10/24 10:54:57;;;;;;;0.73;0.30;;;17.40;88.90;;;;;;4938777;29;20047;-67
2022/10/24 10:57:56;;;;;;;1.50;0.50;;;17.40;92.10;;;;;;4956293;29;20506;-68
2022/10/24 11:00:37;;;;;;;1.98;0.38;;;17.30;89.40;;;;;;4939047;29;20094;-67
2022/10/24 11:03:23;;;;;;;0.47;0.20;;;17.20;89.10;;;;;;4956026;29;20035;-67
2022/10/24 11:06:25;;;;;;;4.18;0.57;;;17.20;91.00;;;;;;4938741;29;20388;-68
2022/10/24 11:09:21;;;;;;;1.15;0.30;;;17.20;92.60;;;;;;4938574;29;20039;-67
2022/10/24 11:12:05;;;;;;;0.35;0.32;;;17.20;91.50;;;;;;4955666;29;20097;-67
2022/10/24 11:14:36;;;;;;;1.00;0.30;;;17.10;93.20;;;;;;4955982;29;20372;-68
2022/10/24 11:17:11;;;;;;;1.48;0.47;;;17.10;93.20;;;;;;4938464;29;20057;-67
2022/10/24 11:19:46;;;;;;;0.38;0.20;;;17.20;92.60;;;;;;4938387;29;20058;-68
2022/10/24 11:22:19;;;;;;;1.65;0.35;;;17.30;92.00;;;;;;4922578;29;20047;-68
2022/10/24 11:25:08;;;;;;;0.98;0.32;;;17.20;90.80;;;;;;4955180;28;20051;-67
2022/10/24 11:27:40;;;;;;;1.85;0.20;;;17.20;91.30;;;;;;4900251;29;20058;-67
2022/10/24 11:30:14;;;;;;;1.60;0.45;;;17.10;91.20;;;;;;4955599;29;20062;-67
2022/10/24 11:32:55;;;;;;;2.38;0.65;;;17.20;92.70;;;;;;4938251;29;20043;-67
2022/10/24 11:35:21;;;;;;;4.55;0.47;;;17.30;89.70;;;;;;4922302;29;20058;-67
2022/10/24 11:37:53;;;;;;;3.78;0.43;;;17.40;89.20;;;;;;4938090;29;20047;-67
2022/10/24 11:40:21;;;;;;;1.05;0.28;;;17.40;90.50;;;;;;4922199;29;20101;-67
2022/10/24 11:43:05;;;;;;;1.25;0.22;;;17.60;88.10;;;;;;4938148;29;20054;-67
2022/10/24 11:45:50;;;;;;;2.92;0.30;;;17.70;83.60;;;;;;4937944;29;20051;-67
2022/10/24 11:48:34;;;;;;;2.00;0.60;;;17.60;79.10;;;;;;4955185;29;20487;-67
2022/10/24 11:51:20;;;;;;;1.55;0.35;;;17.50;87.10;;;;;;4939155;29;20075;-67
2022/10/24 11:54:01;;;;;;;1.48;0.40;;;17.40;90.10;;;;;;4923313;29;20043;-65
2022/10/24 11:56:33;;;;;;;;;;;17.30;84.10;;;;;;4955441;29;20075;-65
2022/10/24 11:59:05;;;;;;;1.38;0.77;;;17.20;85.70;;;;;;4955316;29;19923;-66
2022/10/24 12:01:55;;;;;;;0.80;0.30;;;17.20;88.10;;;;;;4937939;29;20142;-66
2022/10/24 12:04:51;;;;;;;2.13;0.47;;;17.10;87.10;;;;;;4955073;29;20086;-65
2022/10/24 12:07:46;;;;;;;1.85;0.40;;;17.10;89.90;;;;;;4955338;29;20479;-65
2022/10/24 12:10:14;;;;;;;0.77;0.30;;;17.10;86.80;;;;;;4920616;29;20047;-65
2022/10/24 12:13:25;;;;;;;1.23;0.30;;;17.20;88.70;;;;;;4954964;29;20174;-65
2022/10/24 12:16:05;;;;;;;0.90;0.30;;;17.10;84.20;;;;;;4937790;29;20126;-65
2022/10/24 12:18:58;;;;;;;3.10;0.30;;;17.20;84.40;;;;;;4954906;29;20102;-65
2022/10/24 12:21:27;;;;;;;0.45;0.32;;;17.10;80.40;;;;;;4955200;29;20078;-65
2022/10/24 12:23:58;;;;;;;1.25;0.50;;;17.00;88.50;;;;;;4955103;29;20051;-65
2022/10/24 12:26:32;;;;;;;0.65;0.30;;;17.00;89.50;;;;;;4954702;29;20122;-65
2022/10/24 12:29:19;;;;;;;1.55;0.47;;;17.10;88.10;;;;;;4937713;29;20054;-65
2022/10/24 12:31:44;;;;;;;1.65;0.30;;;17.10;90.00;;;;;;4955096;29;20040;-64
2022/10/24 12:34:21;;;;;;;2.20;0.47;;;17.10;88.60;;;;;;4937556;29;20057;-65
2022/10/24 12:37:18;;;;;;;3.65;0.73;;;17.00;83.60;;;;;;4954821;29;20102;-65
2022/10/24 12:39:46;;;;;;;0.73;0.22;;;17.00;87.00;;;;;;4955082;29;20111;-65
2022/10/24 12:42:21;;;;;;;2.95;0.65;;;17.00;89.80;;;;;;4954989;29;20130;-65
2022/10/24 12:44:49;;;;;;;1.30;0.40;;;17.10;89.80;;;;;;4954595;29;20043;-66
2022/10/24 12:47:33;;;;;;;1.60;0.60;;;17.20;84.20;;;;;;4937452;29;20050;-65
2022/10/24 12:50:21;;;;;;;2.28;0.63;;;17.30;83.40;;;;;;4937832;29;20085;-66
2022/10/24 12:52:46;;;;;;;1.15;0.50;;;17.30;78.50;;;;;;4954643;29;20043;-65
2022/10/24 12:55:37;;;;;;;1.60;0.40;;;17.30;78.40;;;;;;4954584;29;20043;-65
2022/10/24 12:58:20;;;;;;;1.85;0.45;;;17.20;79.10;;;;;;4954956;29;20108;-65
2022/10/24 13:01:05;;;;;;;1.20;0.47;;;17.20;84.60;;;;;;4937483;29;20090;-66
2022/10/24 13:03:45;;;;;;;0.63;0.20;;;17.20;84.80;;;;;;4954348;29;20058;-65
2022/10/24 13:06:23;;;;;;;3.67;0.35;;;17.30;77.40;;;;;;4956870;28;20071;-65
2022/10/24 13:09:00;;;;;;;0.28;0.20;;;17.30;81.60;;;;;;4940831;29;20130;-65
2022/10/24 13:12:28;;;;;;;2.33;0.50;;;17.30;82.60;;;;;;4958153;29;20050;-65